»·PEaware :: DAL865 MYNN-KATL

DAL865 :: MYNN-KATL

FLIGHT INFORMATION

Flight Status: Arrived
Operator:
Delta Air Lines
More flights by this operator :: More flights under this callsign
Pilot: Cooper LeComp (8467)
Aircraft: MCDONNELL-DOUGLAS MD-88
(MD88)
More flights by this aircraft type
Origin: MYNN Nassau Intl
Bahamas
Destination: KATL Hartsfield-Jackson Atlanta
United States
More flights between these airports :: More routes between these airports
Route: ZQA BR22V FLL ORL CRG SINCA6
File this flight plan on PilotEdge
Remarks:
Altitude:
(Current/Filed)
32,000ft
Speed:
(Current/Filed)
420kts
Departed: 08-Jul-17 04:52 PM
Arrived: 08-Jul-17 06:39 PM
Distance/Time
Traveled:
631nm/1:47
Distance/Time
To Go:
Arrived

Flight Plot

Page will automatically refresh every two minutes.

Flight plan parsing failed; only flown route is shown


Map Options




Map Legend


Flown Route
Filed Route
Departure Airport
Arrival Airport
Navaid (VOR, NDB)
Fix

Horizontal Profiles

Position Reports

Time Latitude Longitude Heading Altitude Ground
Speed
08-Jul-17 16:36 25.050357 -77.469398 21 22ft 0kts
08-Jul-17 16:37 25.050357 -77.469398 21 22ft 0kts
08-Jul-17 16:38 25.050357 -77.469398 21 22ft 0kts
08-Jul-17 16:39 25.050357 -77.469398 21 22ft 0kts
08-Jul-17 16:40 25.050357 -77.469398 21 22ft 0kts
08-Jul-17 16:41 25.050357 -77.469398 21 22ft 0kts
08-Jul-17 16:42 25.050357 -77.469398 21 22ft 0kts
08-Jul-17 16:43 25.050357 -77.469398 21 22ft 0kts
08-Jul-17 16:44 25.050357 -77.469398 21 22ft 0kts
08-Jul-17 16:45 25.050357 -77.469398 21 22ft 0kts
08-Jul-17 16:46 25.050357 -77.469398 21 22ft 0kts
08-Jul-17 16:47 25.050357 -77.469398 21 22ft 0kts
08-Jul-17 16:48 25.050357 -77.469398 21 22ft 0kts
08-Jul-17 16:49 25.050357 -77.469398 21 22ft 0kts
08-Jul-17 16:50 25.050357 -77.469398 21 22ft 0kts
08-Jul-17 16:51 25.049857 -77.469568 352 21ft 3kts
08-Jul-17 16:52 25.049592 -77.469309 291 20ft 0kts
08-Jul-17 16:53 25.049592 -77.469309 291 20ft 0kts
08-Jul-17 16:54 25.048690 -77.469526 160 27ft 15kts
08-Jul-17 16:55 25.043958 -77.475341 227 26ft 42kts
08-Jul-17 16:56 25.037024 -77.481822 180 18ft 20kts
08-Jul-17 16:57 25.035960 -77.478663 89 22ft 60kts
08-Jul-17 16:58 25.042326 -77.437870 44 1004ft 173kts
08-Jul-17 16:59 25.077494 -77.461693 278 2466ft 240kts
08-Jul-17 17:00 25.100430 -77.537451 300 5258ft 281kts
08-Jul-17 17:01 25.145870 -77.608923 308 8260ft 295kts
08-Jul-17 17:02 25.197741 -77.681000 309 10778ft 308kts
08-Jul-17 17:03 25.252637 -77.755822 309 13151ft 320kts
08-Jul-17 17:04 25.309525 -77.833107 309 15359ft 331kts
08-Jul-17 17:05 25.368172 -77.913227 309 17418ft 342kts
08-Jul-17 17:06 25.428570 -77.996226 309 19334ft 353kts
08-Jul-17 17:07 25.490659 -78.081514 309 21110ft 363kts
08-Jul-17 17:08 25.554169 -78.168688 309 22766ft 372kts
08-Jul-17 17:09 25.619486 -78.258432 309 24305ft 382kts
08-Jul-17 17:10 25.686433 -78.350935 309 25769ft 390kts
08-Jul-17 17:11 25.734221 -78.456416 267 27069ft 395kts
08-Jul-17 17:12 25.735518 -78.579393 270 28326ft 403kts
08-Jul-17 17:13 25.739906 -78.702762 270 29470ft 410kts
08-Jul-17 17:14 25.744718 -78.828932 270 30518ft 417kts
08-Jul-17 17:15 25.749754 -78.958197 270 31424ft 425kts
08-Jul-17 17:16 25.755056 -79.089522 270 32115ft 424kts
08-Jul-17 17:17 25.760402 -79.220316 270 32133ft 427kts
08-Jul-17 17:18 25.765875 -79.351511 270 32121ft 427kts
08-Jul-17 17:19 25.781855 -79.481382 292 32118ft 432kts
08-Jul-17 17:20 25.836764 -79.600216 295 32115ft 434kts
08-Jul-17 17:21 25.888938 -79.723592 293 32123ft 452kts
08-Jul-17 17:22 25.942584 -79.852393 293 32121ft 467kts
08-Jul-17 17:23 25.997921 -79.984972 293 32120ft 478kts
08-Jul-17 17:24 26.054289 -80.119448 295 32117ft 485kts
08-Jul-17 17:25 26.155520 -80.211463 345 32129ft 484kts
08-Jul-17 17:26 26.281445 -80.264024 338 32129ft 488kts
08-Jul-17 17:27 26.402404 -80.321121 338 32121ft 490kts
08-Jul-17 17:28 26.527625 -80.380502 338 32133ft 490kts
08-Jul-17 17:29 26.652761 -80.439842 338 32132ft 491kts
08-Jul-17 17:30 26.778261 -80.499355 338 32127ft 492kts
08-Jul-17 17:31 26.903818 -80.558864 338 32150ft 491kts
08-Jul-17 17:32 27.029294 -80.618299 337 32159ft 489kts
08-Jul-17 17:33 27.152604 -80.676811 336 32151ft 486kts
08-Jul-17 17:34 27.275269 -80.734950 336 32153ft 484kts
08-Jul-17 17:35 27.398995 -80.793580 336 32153ft 483kts
08-Jul-17 17:36 27.522689 -80.852186 336 32153ft 483kts
08-Jul-17 17:37 27.646061 -80.910642 336 32154ft 483kts
08-Jul-17 17:38 27.769350 -80.969042 337 32143ft 482kts
08-Jul-17 17:39 27.892847 -81.027523 337 32136ft 481kts
08-Jul-17 17:40 28.015726 -81.085706 337 32144ft 480kts
08-Jul-17 17:41 28.138187 -81.143675 337 32145ft 478kts
08-Jul-17 17:42 28.260272 -81.201458 337 32142ft 477kts
08-Jul-17 17:43 28.382594 -81.259346 337 32140ft 477kts
08-Jul-17 17:44 28.504752 -81.317105 338 32136ft 477kts
08-Jul-17 17:45 28.626959 -81.344339 357 32134ft 475kts
08-Jul-17 17:46 28.748190 -81.354963 355 32124ft 476kts
08-Jul-17 17:47 28.871508 -81.366931 355 32125ft 476kts
08-Jul-17 17:48 29.003250 -81.379746 355 32136ft 476kts
08-Jul-17 17:49 29.134452 -81.392534 354 32138ft 475kts
08-Jul-17 17:50 29.265687 -81.405378 354 32135ft 474kts
08-Jul-17 17:51 29.357224 -81.414310 354 32129ft 473kts
08-Jul-17 17:52 29.455213 -81.423870 354 32119ft 473kts
08-Jul-17 17:53 29.586112 -81.436642 354 32118ft 473kts
08-Jul-17 17:54 29.716802 -81.449395 354 32113ft 473kts
08-Jul-17 17:55 29.847471 -81.462145 354 32109ft 473kts
08-Jul-17 17:56 29.978187 -81.474901 354 32106ft 473kts
08-Jul-17 17:57 30.108698 -81.487636 354 32093ft 473kts
08-Jul-17 17:58 30.239856 -81.500428 354 32075ft 473kts
08-Jul-17 17:59 30.368430 -81.524860 336 32071ft 470kts
08-Jul-17 18:00 30.484033 -81.594219 332 32069ft 470kts
08-Jul-17 18:01 30.581353 -81.651160 332 32063ft 470kts
08-Jul-17 18:02 30.697856 -81.719121 332 32064ft 471kts
08-Jul-17 18:03 30.814592 -81.787321 332 32061ft 471kts
08-Jul-17 18:04 30.950608 -81.867213 331 32071ft 471kts
08-Jul-17 18:05 31.066904 -81.935898 330 32081ft 468kts
08-Jul-17 18:06 31.180744 -82.003167 330 32083ft 466kts
08-Jul-17 18:07 31.276807 -82.059878 330 32087ft 465kts
08-Jul-17 18:08 31.391901 -82.127797 330 32089ft 465kts
08-Jul-17 18:09 31.507207 -82.195828 330 32083ft 464kts
08-Jul-17 18:10 31.622085 -82.263585 330 32081ft 464kts
08-Jul-17 18:11 31.737499 -82.331633 331 32081ft 464kts
08-Jul-17 18:12 31.852095 -82.400611 330 32083ft 464kts
08-Jul-17 18:13 31.966580 -82.469796 330 32086ft 464kts
08-Jul-17 18:14 32.081275 -82.539084 330 32085ft 464kts
08-Jul-17 18:15 32.195621 -82.608141 330 32081ft 464kts
08-Jul-17 18:16 32.309986 -82.677185 330 32096ft 464kts
08-Jul-17 18:17 32.424385 -82.746238 330 32100ft 464kts
08-Jul-17 18:18 32.539161 -82.815886 327 32088ft 456kts
08-Jul-17 18:19 32.623127 -82.917082 305 32096ft 425kts
08-Jul-17 18:20 32.695895 -83.026738 306 31120ft 421kts
08-Jul-17 18:21 32.767481 -83.133376 307 29049ft 405kts
08-Jul-17 18:22 32.836688 -83.236317 307 27079ft 396kts
08-Jul-17 18:23 32.904239 -83.336668 307 25215ft 386kts
08-Jul-17 18:24 32.968545 -83.434083 306 23249ft 379kts
08-Jul-17 18:25 33.032622 -83.531265 306 21209ft 367kts
08-Jul-17 18:26 33.094453 -83.624729 307 19373ft 353kts
08-Jul-17 18:27 33.154742 -83.714778 307 17469ft 344kts
08-Jul-17 18:28 33.213078 -83.801922 307 15597ft 336kts
08-Jul-17 18:29 33.270016 -83.888329 307 13874ft 329kts
08-Jul-17 18:30 33.325874 -83.973229 307 12106ft 320kts
08-Jul-17 18:31 33.401482 -84.006470 3 10763ft 308kts
08-Jul-17 18:32 33.485083 -83.999596 1 9392ft 297kts
08-Jul-17 18:33 33.565875 -83.994893 0 8082ft 286kts
08-Jul-17 18:34 33.633892 -84.021929 296 7005ft 262kts
08-Jul-17 18:35 33.635655 -84.107708 268 6204ft 246kts
08-Jul-17 18:36 33.634579 -84.180599 270 4809ft 193kts
08-Jul-17 18:37 33.634725 -84.232765 270 3722ft 139kts
08-Jul-17 18:38 33.634663 -84.278331 270 3054ft 137kts
08-Jul-17 18:39 33.634716 -84.324137 271 2362ft 136kts
08-Jul-17 18:40 33.634746 -84.369369 271 1646ft 133kts
08-Jul-17 18:41 33.634696 -84.414742 269 972ft 119kts
08-Jul-17 18:42 33.635435 -84.422295 330 971ft 0kts
08-Jul-17 18:43 33.635831 -84.428568 270 971ft 19kts
08-Jul-17 18:44 33.637814 -84.430492 4 971ft 13kts

Navigation Log

Ident Type
Flight plan parsing failed, navigation log unavailable